Home   Weather   Germany   Bergisch Gladbach   Past weeks
Flag for Germany

Past Weather in Bergisch Gladbach, North Rhine-Westphalia, Germany — Yesterday and Last 2 Weeks

Currently: 39 °F. Clear. (Weather station: Koeln / Bonn, Germany). See more current weather

Past Weather in Bergisch Gladbach — Graph

°F

Bergisch Gladbach Temperature Yesterday

Maximum temperature yesterday: 43 °F (at 2:20 pm)
Minimum temperature yesterday: 23 °F (at 7:50 am)
Average temperature yesterday: 33 °F

High & Low Weather Summary for the Past Weeks

 TemperatureHumidityPressure
High50 °F (Feb 3, 1:50 pm)100% (Jan 25, 8:50 pm)30.74 "Hg (Jan 25, 8:50 pm)
Low19 °F (Jan 29, 4:50 am)34% (Feb 8, 1:50 pm)30.01 "Hg (Jan 30, 6:50 am)
Average38 °F82%30.40 "Hg
* Reported Jan 24 6:20 pm — Feb 8 6:20 pm, Bergisch Gladbach. Weather by CustomWeather, © 2023

Note: Actual official high and low records may vary slightly from our data, if they occured in-between our weather recording intervals... More about our weather records

Bergisch Gladbach Weather History for the Previous 24 Hours

Scroll right to see more
 ConditionsComfort  
Time TempWeatherWind HumidityBarometerVisibility
6:20 pm
Wed, Feb 8
39 °FClear.7 mph45%30.54 "Hg10 mi
5:50 pm39 °FClear.8 mph42%30.57 "Hg10 mi
5:20 pm39 °FSunny.9 mph42%30.57 "Hg10 mi
4:50 pm41 °FSunny.9 mph42%30.57 "Hg10 mi
4:20 pm45 °FSunny.12 mph34%30.57 "Hg10 mi
3:20 pm46 °FPassing clouds.9 mph34%30.57 "HgN/A
2:20 pm45 °FPassing clouds.6 mph34%30.60 "HgN/A
1:50 pm45 °FSunny.7 mph34%30.60 "Hg10 mi
12:50 pm43 °FPassing clouds.9 mph39%30.63 "HgN/A
12:20 pm41 °FSunny.12 mph39%30.66 "Hg10 mi
11:50 am41 °FPassing clouds.8 mph39%30.66 "HgN/A
11:20 am39 °FPassing clouds.7 mph48%30.66 "HgN/A
10:50 am37 °FPassing clouds.3 mph48%30.66 "HgN/A
10:20 am36 °FPassing clouds.3 mph60%30.66 "HgN/A
9:50 am32 °FSunny.3 mph69%30.66 "Hg10 mi
9:20 am28 °FSunny.2 mph80%30.66 "Hg10 mi
8:50 am27 °FPassing clouds.3 mph74%30.66 "HgN/A
8:20 am23 °FSunny.6 mph80%30.66 "Hg10 mi
7:50 am25 °FPassing clouds.3 mph80%30.69 "HgN/A
7:20 am19 °FClear.3 mph93%30.66 "Hg10 mi
6:50 am23 °FClear.5 mph86%30.66 "Hg10 mi
6:20 am23 °FClear.5 mph86%30.66 "Hg10 mi
5:50 am21 °FClear.7 mph86%30.66 "Hg10 mi
5:20 am21 °FClear.6 mph86%30.66 "Hg10 mi
4:50 am27 °FPassing clouds.3 mph74%30.66 "HgN/A
4:20 am23 °FClear.3 mph80%30.66 "Hg10 mi
3:50 am30 °FPassing clouds.3 mph64%30.66 "HgN/A
3:20 am28 °FClear.5 mph74%30.66 "Hg10 mi
2:50 am25 °FPassing clouds.3 mph80%30.69 "HgN/A
2:20 am30 °FClear.2 mph69%30.69 "Hg10 mi
1:50 am27 °FClear.1 mph74%30.69 "Hg10 mi
12:20 am27 °FClear.1 mph80%30.69 "Hg10 mi
11:50 pm
Tue, Feb 7
25 °FClear.3 mph80%30.69 "Hg10 mi
11:20 pm28 °FClear.2 mph69%30.69 "Hg10 mi
10:50 pm30 °FClear.1 mph64%30.69 "Hg10 mi
10:20 pm32 °FClear.5 mph60%30.69 "Hg10 mi
9:50 pm32 °FClear.3 mph60%30.69 "Hg10 mi
9:20 pm30 °FClear.3 mph64%30.69 "Hg10 mi
8:50 pm28 °FPassing clouds.3 mph74%30.69 "HgN/A
8:20 pm30 °FClear.6 mph69%30.69 "Hg10 mi
7:50 pm28 °FClear.1 mph69%30.69 "Hg10 mi
7:20 pm32 °FClear.2 mph60%30.69 "Hg10 mi
Weather by CustomWeather, © 2023

See weather overview